Time;durP1;ratioP1;P1;durP2;ratioP2;P2;SDS_P1;SDS_P2;PMS_P1;PMS_P2;Temp;Humidity;BMP_temperature;BMP_pressure;BME280_temperature;BME280_humidity;BME280_pressure;Samples;Min_cycle;Max_cycle;Signal;HPM_P1;HPM_P2
2024/01/27 00:01:34;;;;;;;9.57;1.90;;;3.80;99.90;3.00;99854;;;;568382;249;24115;-76
2024/01/27 00:04:01;;;;;;;9.93;2.13;;;3.80;99.90;3.00;99853;;;;569744;248;24106;-76
2024/01/27 00:06:29;;;;;;;7.43;1.80;;;3.80;99.90;3.00;99850;;;;569677;248;24069;-77
2024/01/27 00:08:57;;;;;;;10.13;2.03;;;3.80;99.90;2.90;99852;;;;569412;249;24128;-76
2024/01/27 00:11:25;;;;;;;2.43;1.17;;;3.80;99.90;3.00;99858;;;;569363;249;25106;-76
2024/01/27 00:13:53;;;;;;;2.80;1.07;;;3.80;99.90;3.00;99854;;;;569204;249;24057;-76
2024/01/27 00:16:22;;;;;;;4.50;1.60;;;3.80;99.90;2.90;99854;;;;569197;249;24077;-75
2024/01/27 00:18:50;;;;;;;1.43;1.17;;;3.70;99.90;2.90;99856;;;;566591;249;24098;-76
2024/01/27 00:21:18;;;;;;;9.07;1.83;;;3.80;99.90;2.90;99848;;;;568719;249;24048;-77
2024/01/27 00:23:46;;;;;;;7.93;1.30;;;3.70;99.90;2.90;99837;;;;568496;249;24040;-76
2024/01/27 00:26:15;;;;;;;5.27;1.47;;;3.70;99.90;2.90;99840;;;;568546;249;24108;-76
2024/01/27 00:28:43;;;;;;;9.05;2.17;;;3.70;99.90;2.90;99852;;;;563570;249;35056;-76
2024/01/27 00:31:11;;;;;;;11.27;2.03;;;3.70;99.90;2.90;99851;;;;568858;249;24196;-79
2024/01/27 00:33:38;;;;;;;4.50;1.00;;;3.70;99.90;2.80;99843;;;;568679;249;24269;-80
2024/01/27 00:36:06;;;;;;;8.37;1.30;;;3.70;99.90;2.80;99851;;;;568450;249;24119;-75
2024/01/27 00:38:34;;;;;;;2.00;0.60;;;3.70;99.90;2.80;99837;;;;568601;249;24146;-77
2024/01/27 00:41:02;;;;;;;5.00;1.33;;;3.60;99.90;2.80;99838;;;;568247;249;24053;-77
2024/01/27 00:43:30;;;;;;;2.50;1.07;;;3.60;99.90;2.70;99844;;;;568460;249;24044;-77
2024/01/27 00:45:58;;;;;;;4.57;1.40;;;3.60;99.90;2.70;99846;;;;568248;249;24058;-76
2024/01/27 00:48:26;;;;;;;0.40;0.40;;;3.60;99.90;2.70;99848;;;;565991;249;24048;-76
2024/01/27 00:50:55;;;;;;;5.70;1.80;;;3.50;99.90;2.60;99840;;;;568672;249;24092;-76
2024/01/27 00:53:22;;;;;;;7.60;0.87;;;3.50;99.90;2.60;99827;;;;568666;249;24062;-76
2024/01/27 00:55:51;;;;;;;5.80;1.17;;;3.40;99.90;2.50;99822;;;;568661;249;24055;-76
2024/01/27 00:58:19;;;;;;;5.63;0.73;;;3.40;99.90;2.50;99827;;;;568572;249;24064;-78
2024/01/27 01:00:47;;;;;;;6.60;0.57;;;3.40;99.90;2.50;99823;;;;568701;249;24040;-77
2024/01/27 01:03:15;;;;;;;0.63;0.63;;;3.40;99.90;2.50;99826;;;;568667;249;24080;-79
2024/01/27 01:05:43;;;;;;;1.70;0.67;;;3.40;99.90;2.50;99820;;;;568634;249;24112;-76
2024/01/27 01:08:11;;;;;;;4.10;0.70;;;3.30;99.90;2.50;99812;;;;568621;249;24068;-76
2024/01/27 01:10:39;;;;;;;5.63;0.53;;;3.30;99.90;2.50;99819;;;;568661;249;24059;-79
2024/01/27 01:13:08;;;;;;;7.07;1.77;;;3.30;99.90;2.50;99807;;;;568706;249;24083;-77
2024/01/27 01:15:36;;;;;;;7.60;1.47;;;3.30;99.90;2.40;99817;;;;569815;248;24065;-78
2024/01/27 01:18:04;;;;;;;4.33;0.77;;;3.30;99.90;2.40;99817;;;;569741;248;24120;-77
2024/01/27 01:20:32;;;;;;;4.37;0.70;;;3.30;99.90;2.40;99807;;;;566912;249;24084;-76
2024/01/27 01:23:00;;;;;;;1.13;0.53;;;3.30;99.90;2.40;99793;;;;568949;249;25089;-76
2024/01/27 01:25:27;;;;;;;0.47;0.43;;;3.30;99.90;2.40;99797;;;;568840;249;24091;-77
2024/01/27 01:27:55;;;;;;;8.80;1.87;;;3.20;99.90;2.30;99797;;;;568805;249;24148;-76
2024/01/27 01:30:23;;;;;;;7.93;1.13;;;3.20;99.90;2.30;99811;;;;568910;249;24056;-77
2024/01/27 01:32:51;;;;;;;1.83;1.00;;;3.10;99.90;2.20;99803;;;;568715;249;24053;-76
2024/01/27 01:35:19;;;;;;;0.53;0.53;;;3.10;99.90;2.20;99807;;;;568523;249;24123;-77
2024/01/27 01:37:48;;;;;;;5.23;0.80;;;3.00;99.90;2.10;99802;;;;568674;249;24063;-78
2024/01/27 01:40:18;;;;;;;1.20;0.87;;;3.00;99.90;2.10;99806;;;;568478;249;24036;-77
2024/01/27 01:42:43;;;;;;;1.53;0.50;;;3.00;99.90;2.10;99800;;;;566299;249;24108;-77
2024/01/27 01:45:11;;;;;;;3.20;1.33;;;3.00;99.90;2.10;99797;;;;568566;249;24130;-78
2024/01/27 01:47:38;;;;;;;4.00;0.97;;;3.00;99.90;2.10;99797;;;;576873;249;25151;-75
2024/01/27 01:50:07;;;;;;;1.00;0.90;;;3.00;99.90;2.10;99789;;;;566207;249;24076;-77
2024/01/27 01:52:39;;;;;;;3.07;0.83;;;2.90;99.90;2.10;99797;;;;568669;249;24042;-76
2024/01/27 01:55:03;;;;;;;3.63;0.97;;;2.90;99.90;2.10;99802;;;;568854;248;24119;-76
2024/01/27 01:57:31;;;;;;;4.83;1.40;;;3.00;99.90;2.10;99798;;;;561632;249;35024;-77
2024/01/27 01:59:59;;;;;;;6.20;1.40;;;3.00;99.90;2.10;99790;;;;561587;249;35064;-77
2024/01/27 02:02:27;;;;;;;6.28;1.45;;;3.00;99.90;2.10;99789;;;;563718;249;35134;-79
2024/01/27 02:04:55;;;;;;;2.80;1.00;;;3.00;99.90;2.10;99782;;;;568609;249;25090;-77
2024/01/27 02:07:24;;;;;;;3.33;1.17;;;3.00;99.90;2.10;99784;;;;568626;249;24163;-77
2024/01/27 02:09:52;;;;;;;4.67;0.73;;;3.00;99.90;2.10;99802;;;;568644;249;24236;-78
2024/01/27 02:12:20;;;;;;;5.00;0.57;;;3.00;99.90;2.10;99797;;;;568642;249;24050;-79
2024/01/27 02:14:48;;;;;;;2.33;0.80;;;3.00;99.90;2.00;99789;;;;568627;249;24121;-79
2024/01/27 02:17:16;;;;;;;3.50;0.77;;;2.90;99.90;2.00;99785;;;;568650;249;24093;-79
2024/01/27 02:19:44;;;;;;;1.80;0.63;;;2.90;99.90;2.00;99787;;;;568663;249;24063;-79
2024/01/27 02:22:12;;;;;;;2.90;0.20;;;2.90;99.90;1.90;99792;;;;566022;249;24081;-76
2024/01/27 02:24:41;;;;;;;0.50;0.50;;;2.80;99.90;1.90;99791;;;;568363;249;24056;-78
2024/01/27 02:27:09;;;;;;;0.33;0.33;;;2.80;99.90;1.90;99782;;;;569381;248;24089;-79
2024/01/27 02:29:37;;;;;;;2.47;0.60;;;2.80;99.90;1.80;99783;;;;569521;248;24060;-79
2024/01/27 02:32:05;;;;;;;0.37;0.30;;;2.70;99.90;1.80;99787;;;;569106;249;24053;-79
2024/01/27 02:34:34;;;;;;;0.40;0.40;;;2.70;99.90;1.80;99781;;;;568990;249;24077;-78
2024/01/27 02:37:02;;;;;;;0.37;0.30;;;2.70;99.90;1.70;99777;;;;568848;249;24059;-77
2024/01/27 02:39:30;;;;;;;0.97;0.60;;;2.70;99.90;1.70;99783;;;;568801;249;24085;-77
2024/01/27 02:41:58;;;;;;;0.93;0.40;;;2.70;99.90;1.70;99775;;;;568948;249;24055;-76
2024/01/27 02:44:26;;;;;;;0.20;0.20;;;2.60;99.90;1.70;99783;;;;568703;249;24060;-77
2024/01/27 02:46:54;;;;;;;0.63;0.40;;;2.60;99.90;1.70;99775;;;;568666;249;24097;-77
2024/01/27 02:49:22;;;;;;;0.33;0.33;;;2.60;99.90;1.70;99783;;;;568629;249;24073;-76
2024/01/27 02:51:51;;;;;;;1.40;0.70;;;2.60;99.90;1.70;99783;;;;561397;249;35055;-78
2024/01/27 02:54:19;;;;;;;1.83;0.83;;;2.60;99.90;1.70;99788;;;;564067;249;36907;-77
2024/01/27 02:56:47;;;;;;;1.53;0.83;;;2.60;99.90;1.70;99784;;;;563970;249;34965;-78
2024/01/27 02:59:14;;;;;;;4.00;0.98;;;2.60;99.90;1.70;99788;;;;563920;249;34989;-76
2024/01/27 03:01:42;;;;;;;0.67;0.60;;;2.60;99.90;1.70;99797;;;;568871;249;24087;-77
2024/01/27 03:04:11;;;;;;;0.57;0.47;;;2.60;99.90;1.70;99793;;;;568620;249;24080;-76
2024/01/27 03:06:39;;;;;;;0.33;0.33;;;2.60;99.90;1.70;99793;;;;568681;249;24103;-76
2024/01/27 03:09:07;;;;;;;1.50;0.90;;;2.60;99.90;1.70;99793;;;;568663;249;24068;-76
2024/01/27 03:11:35;;;;;;;0.40;0.40;;;2.60;99.90;1.60;99804;;;;568696;249;24106;-76
2024/01/27 03:14:03;;;;;;;0.40;0.40;;;2.60;99.90;1.60;99793;;;;568666;249;25090;-76
2024/01/27 03:16:31;;;;;;;0.37;0.37;;;2.50;99.90;1.60;99798;;;;568738;249;24051;-76
2024/01/27 03:18:59;;;;;;;3.17;0.50;;;2.50;99.90;1.60;99803;;;;568718;249;24099;-76
2024/01/27 03:21:26;;;;;;;0.67;0.37;;;2.60;99.90;1.60;99797;;;;568981;249;24051;-75
2024/01/27 03:23:55;;;;;;;2.20;0.80;;;2.50;99.90;1.60;99820;;;;561910;249;35043;-76
2024/01/27 03:26:23;;;;;;;0.40;0.40;;;2.50;99.90;1.70;99813;;;;568802;249;25365;-74
2024/01/27 03:28:52;;;;;;;1.03;0.90;;;2.60;99.90;1.70;99817;;;;569009;249;24055;-75
2024/01/27 03:31:19;;;;;;;0.50;0.50;;;2.60;99.90;1.70;99822;;;;569094;249;24102;-76
2024/01/27 03:33:50;;;;;;;1.10;0.53;;;2.60;99.90;1.70;99823;;;;569074;249;24167;-75
2024/01/27 03:36:15;;;;;;;3.80;0.70;;;2.60;99.90;1.70;99829;;;;569087;246;24189;-75
2024/01/27 03:38:43;;;;;;;2.37;0.70;;;2.60;99.90;1.70;99831;;;;570409;248;24114;-76
2024/01/27 03:41:12;;;;;;;1.30;0.60;;;2.60;99.90;1.70;99826;;;;564893;248;34967;-76
2024/01/27 03:43:40;;;;;;;2.12;0.90;;;2.60;99.90;1.80;99828;;;;564296;249;35011;-76
2024/01/27 03:46:08;;;;;;;3.30;1.10;;;2.70;99.90;1.80;99844;;;;564817;249;34987;-76
2024/01/27 03:48:35;;;;;;;1.43;0.33;;;2.70;99.90;1.80;99842;;;;569488;249;24084;-75
2024/01/27 03:51:03;;;;;;;1.33;0.70;;;2.70;99.90;1.80;99829;;;;568841;249;24063;-76
2024/01/27 03:53:32;;;;;;;1.33;0.37;;;2.70;99.90;1.80;99842;;;;569340;249;24065;-76
2024/01/27 03:56:04;;;;;;;0.17;0.17;;;2.70;99.90;1.80;99835;;;;569113;249;24047;-76
2024/01/27 03:58:31;;;;;;;4.23;0.60;;;2.70;99.90;1.80;99835;;;;569184;247;24061;-76
2024/01/27 04:00:56;;;;;;;2.57;0.40;;;2.70;99.90;1.80;99845;;;;568945;249;25157;-77
2024/01/27 04:03:28;;;;;;;0.33;0.20;;;2.70;99.90;1.80;99844;;;;568890;249;24081;-75
2024/01/27 04:05:52;;;;;;;1.37;0.87;;;2.70;99.90;1.80;99848;;;;568736;249;24050;-76
2024/01/27 04:08:20;;;;;;;0.20;0.20;;;2.70;99.90;1.80;99858;;;;568928;249;24047;-75
2024/01/27 04:10:49;;;;;;;1.03;0.50;;;2.70;99.90;1.90;99869;;;;566788;249;24053;-76
2024/01/27 04:13:17;;;;;;;1.23;0.60;;;2.70;99.90;1.80;99869;;;;568838;249;24057;-77
2024/01/27 04:15:45;;;;;;;2.73;0.60;;;2.70;99.90;1.80;99875;;;;568683;249;24120;-77
2024/01/27 04:18:13;;;;;;;0.30;0.30;;;2.70;99.90;1.80;99884;;;;568702;249;24055;-77
2024/01/27 04:20:41;;;;;;;3.50;0.90;;;2.70;99.90;1.80;99874;;;;568679;249;24080;-78
2024/01/27 04:23:09;;;;;;;1.67;0.30;;;2.70;99.90;1.80;99882;;;;568436;249;24067;-77
2024/01/27 04:25:37;;;;;;;0.20;0.20;;;2.70;99.90;1.80;99888;;;;566053;249;24088;-77
2024/01/27 04:28:06;;;;;;;0.27;0.27;;;2.70;99.90;1.80;99878;;;;568249;249;24061;-77
2024/01/27 04:30:34;;;;;;;0.70;0.50;;;2.70;99.90;1.80;99884;;;;568321;249;24069;-77
2024/01/27 04:33:02;;;;;;;0.57;0.57;;;2.70;99.90;1.80;99886;;;;568162;249;24077;-77
2024/01/27 04:35:29;;;;;;;0.90;0.60;;;2.70;99.90;1.80;99897;;;;568348;249;24092;-76
2024/01/27 04:37:58;;;;;;;0.77;0.40;;;2.70;99.90;1.80;99900;;;;568268;249;24186;-77
2024/01/27 04:40:25;;;;;;;0.47;0.47;;;2.70;99.90;1.80;99894;;;;568601;249;24078;-76
2024/01/27 04:42:53;;;;;;;0.13;0.10;;;2.70;99.90;1.80;99907;;;;568368;249;24069;-76
2024/01/27 04:45:21;;;;;;;1.47;0.43;;;2.70;99.90;1.80;99914;;;;568701;249;24068;-76
2024/01/27 04:47:49;;;;;;;1.93;0.60;;;2.70;99.90;1.80;99920;;;;568319;249;24053;-75
2024/01/27 04:50:17;;;;;;;0.20;0.20;;;2.70;99.90;1.80;99929;;;;569357;248;24087;-75
2024/01/27 04:52:45;;;;;;;1.73;0.30;;;2.70;99.90;1.80;99931;;;;569456;248;24109;-75
2024/01/27 04:55:12;;;;;;;1.13;0.80;;;2.70;99.90;1.80;99937;;;;567282;249;24116;-78
2024/01/27 04:57:40;;;;;;;0.20;0.20;;;2.70;99.90;1.80;99944;;;;569437;249;24055;-76
2024/01/27 05:00:12;;;;;;;0.50;0.30;;;2.60;99.90;1.70;99955;;;;569185;249;24321;-76
2024/01/27 05:02:36;;;;;;;1.70;0.60;;;2.60;99.90;1.70;99962;;;;567017;249;24084;-77
2024/01/27 05:05:05;;;;;;;0.10;0.10;;;2.50;99.90;1.70;99964;;;;569234;249;24087;-78
2024/01/27 05:07:33;;;;;;;0.17;0.17;;;2.60;99.90;1.70;99972;;;;569184;249;24068;-78
2024/01/27 05:10:01;;;;;;;0.23;0.17;;;2.50;99.90;1.60;99967;;;;568997;249;24063;-76
2024/01/27 05:12:29;;;;;;;0.20;0.20;;;2.60;99.90;1.60;99977;;;;568887;249;24078;-77
2024/01/27 05:14:57;;;;;;;0.90;0.30;;;2.50;99.90;1.60;99979;;;;568947;249;24055;-75
2024/01/27 05:17:25;;;;;;;0.30;0.20;;;2.50;99.90;1.60;99986;;;;568979;249;24075;-75
2024/01/27 05:19:53;;;;;;;0.10;0.10;;;2.50;99.90;1.60;99994;;;;568898;249;24135;-75
2024/01/27 05:22:21;;;;;;;0.27;0.27;;;2.40;99.90;1.60;100006;;;;568943;249;25138;-75
2024/01/27 05:24:49;;;;;;;0.20;0.10;;;2.40;99.90;1.50;99999;;;;568431;249;24127;-74
2024/01/27 05:27:18;;;;;;;0.40;0.13;;;2.30;99.90;1.50;99998;;;;566008;249;24165;-77
2024/01/27 05:29:46;;;;;;;0.30;0.20;;;2.30;99.90;1.40;100009;;;;568319;249;24118;-75
2024/01/27 05:32:14;;;;;;;0.20;0.20;;;2.30;99.90;1.40;100015;;;;568212;249;24087;-75
2024/01/27 05:34:42;;;;;;;0.20;0.20;;;2.30;99.90;1.40;100019;;;;568358;249;24072;-77
2024/01/27 05:37:09;;;;;;;0.37;0.17;;;2.30;99.90;1.40;100024;;;;568271;249;24057;-77
2024/01/27 05:39:37;;;;;;;0.10;0.10;;;2.30;99.90;1.40;100026;;;;568436;249;24101;-78
2024/01/27 05:42:05;;;;;;;0.10;0.10;;;2.30;99.90;1.40;100041;;;;568336;249;25125;-78
2024/01/27 05:44:34;;;;;;;0.10;0.10;;;2.20;99.90;1.30;100049;;;;568710;249;24109;-79
2024/01/27 05:47:02;;;;;;;0.60;0.20;;;2.20;99.90;1.30;100047;;;;568357;249;24110;-78
2024/01/27 05:49:30;;;;;;;0.13;0.13;;;2.20;99.90;1.30;100062;;;;568290;249;24049;-76
2024/01/27 05:51:58;;;;;;;0.20;0.20;;;2.20;99.90;1.20;100063;;;;568411;249;24048;-78
2024/01/27 05:54:26;;;;;;;0.30;0.30;;;2.10;99.90;1.20;100079;;;;563729;249;35015;-77
2024/01/27 05:56:54;;;;;;;0.30;0.30;;;2.10;99.90;1.20;100088;;;;566254;249;24079;-76
2024/01/27 05:59:22;;;;;;;0.07;0.07;;;2.10;99.90;1.20;100081;;;;568329;249;24069;-75
2024/01/27 06:01:50;;;;;;;0.27;0.27;;;2.10;99.90;1.10;100094;;;;569312;248;24111;-76
2024/01/27 06:04:18;;;;;;;0.20;0.20;;;2.10;99.90;1.10;100098;;;;569410;248;24091;-75
2024/01/27 06:06:46;;;;;;;0.20;0.20;;;2.10;99.90;1.10;100104;;;;569071;249;24048;-76
2024/01/27 06:09:14;;;;;;;0.50;0.43;;;2.00;99.90;1.10;100117;;;;569189;249;24070;-76
2024/01/27 06:11:42;;;;;;;0.50;0.50;;;2.00;99.90;1.00;100126;;;;568828;249;24057;-78
2024/01/27 06:14:10;;;;;;;0.50;0.50;;;2.00;99.90;1.00;100135;;;;569525;249;24064;-74
2024/01/27 06:16:37;;;;;;;0.63;0.60;;;1.90;99.90;1.00;100147;;;;569076;249;24173;-78
2024/01/27 06:19:05;;;;;;;1.07;0.70;;;1.90;99.90;1.00;100160;;;;568652;249;24092;-76
2024/01/27 06:21:33;;;;;;;1.20;0.53;;;1.90;99.90;1.00;100162;;;;568814;249;24064;-75
2024/01/27 06:24:01;;;;;;;1.17;0.60;;;1.90;99.90;1.00;100168;;;;568707;249;24063;-74
2024/01/27 06:26:30;;;;;;;0.50;0.50;;;2.00;99.90;1.00;100187;;;;569004;249;24090;-74
2024/01/27 06:28:58;;;;;;;2.37;1.17;;;1.90;99.90;1.10;100187;;;;566788;249;24098;-77
2024/01/27 06:31:26;;;;;;;0.90;0.90;;;1.90;99.90;1.10;100202;;;;568944;249;24072;-76
2024/01/27 06:33:53;;;;;;;0.67;0.67;;;2.00;99.90;1.10;100205;;;;568961;249;24057;-77
2024/01/27 06:36:24;;;;;;;1.20;1.00;;;2.00;99.90;1.00;100208;;;;568896;249;24049;-75
2024/01/27 06:38:49;;;;;;;1.00;1.00;;;2.00;99.90;1.10;100218;;;;568683;249;24087;-75
2024/01/27 06:41:17;;;;;;;1.00;0.83;;;2.00;99.90;1.10;100226;;;;568733;249;24053;-74
2024/01/27 06:43:45;;;;;;;0.80;0.80;;;2.00;99.90;1.10;100225;;;;566602;249;24053;-76
2024/01/27 06:46:13;;;;;;;0.73;0.73;;;2.10;99.90;1.20;100240;;;;568702;249;24140;-76
2024/01/27 06:48:41;;;;;;;1.53;1.20;;;2.10;99.90;1.30;100252;;;;568713;249;24071;-75
2024/01/27 06:51:09;;;;;;;0.30;0.30;;;2.10;99.90;1.30;100254;;;;566544;249;24131;-74
2024/01/27 06:53:37;;;;;;;0.30;0.30;;;2.20;99.90;1.30;100266;;;;568628;249;24127;-76
2024/01/27 06:56:05;;;;;;;0.27;0.27;;;2.30;99.90;1.40;100271;;;;568676;249;24057;-76
2024/01/27 06:58:34;;;;;;;0.33;0.33;;;2.30;99.90;1.40;100263;;;;566188;249;24083;-77
2024/01/27 07:01:01;;;;;;;0.20;0.20;;;2.30;99.90;1.40;100269;;;;568254;249;24069;-76
2024/01/27 07:03:30;;;;;;;0.10;0.10;;;2.30;99.90;1.40;100284;;;;568330;249;24077;-76
2024/01/27 07:06:00;;;;;;;0.00;0.00;;;2.40;99.90;1.40;100293;;;;568259;249;24060;-77
2024/01/27 07:08:26;;;;;;;0.10;0.10;;;2.40;99.90;1.40;100296;;;;568356;249;24064;-75
2024/01/27 07:10:54;;;;;;;0.10;0.10;;;2.40;99.90;1.50;100312;;;;568285;249;24045;-75
2024/01/27 07:13:22;;;;;;;0.10;0.10;;;2.40;99.90;1.50;100309;;;;567591;248;24114;-75
2024/01/27 07:15:50;;;;;;;3.70;0.20;;;2.30;99.90;1.50;100312;;;;569447;248;24044;-77
2024/01/27 07:18:19;;;;;;;1.40;0.20;;;2.40;99.90;1.50;100315;;;;568983;249;24044;-76
2024/01/27 07:20:46;;;;;;;0.20;0.20;;;2.40;99.90;1.50;100335;;;;569090;249;24066;-76
2024/01/27 07:23:14;;;;;;;0.10;0.10;;;2.40;99.90;1.60;100343;;;;568777;249;24086;-76
2024/01/27 07:25:42;;;;;;;0.33;0.33;;;2.50;99.90;1.60;100352;;;;568908;249;24048;-76
2024/01/27 07:28:10;;;;;;;0.20;0.20;;;2.50;99.90;1.60;100358;;;;568791;249;24189;-76
2024/01/27 07:30:40;;;;;;;0.37;0.33;;;2.50;99.90;1.60;100370;;;;569073;249;24053;-77
2024/01/27 07:33:05;;;;;;;0.30;0.30;;;2.50;99.90;1.60;100367;;;;568176;249;24061;-77
2024/01/27 07:35:34;;;;;;;0.50;0.50;;;2.50;99.90;1.60;100371;;;;568945;249;24044;-77
2024/01/27 07:38:01;;;;;;;0.30;0.30;;;2.50;99.90;1.60;100382;;;;568919;249;24066;-77
2024/01/27 07:40:29;;;;;;;0.50;0.50;;;2.50;99.90;1.60;100391;;;;568966;249;24088;-77
2024/01/27 07:42:57;;;;;;;0.50;0.50;;;2.50;99.90;1.70;100388;;;;568891;249;24053;-76
2024/01/27 07:45:25;;;;;;;0.50;0.50;;;2.50;99.90;1.70;100397;;;;568913;249;24050;-78
2024/01/27 07:47:53;;;;;;;0.90;0.33;;;2.60;99.90;1.70;100411;;;;568946;249;24037;-76
2024/01/27 07:50:22;;;;;;;0.40;0.40;;;2.60;99.90;1.80;100413;;;;568686;249;24082;-76
2024/01/27 07:52:49;;;;;;;0.60;0.60;;;2.70;99.90;1.80;100421;;;;568643;249;24087;-75
2024/01/27 07:55:17;;;;;;;0.30;0.30;;;2.60;99.90;1.80;100430;;;;568642;249;24068;-76
2024/01/27 07:57:46;;;;;;;0.83;0.73;;;2.60;99.90;1.80;100441;;;;568612;249;24060;-75
2024/01/27 08:00:14;;;;;;;0.40;0.40;;;2.60;99.90;1.80;100438;;;;566023;249;24139;-76
2024/01/27 08:02:42;;;;;;;0.80;0.80;;;2.70;99.90;1.80;100451;;;;566175;249;24064;-76
2024/01/27 08:05:10;;;;;;;0.47;0.47;;;2.70;99.90;1.80;100456;;;;568201;249;24104;-77
2024/01/27 08:07:38;;;;;;;0.30;0.30;;;2.60;99.90;1.80;100457;;;;568429;249;24054;-77
2024/01/27 08:10:10;;;;;;;0.77;0.40;;;2.70;99.90;1.80;100469;;;;568261;249;24045;-76
2024/01/27 08:12:34;;;;;;;0.40;0.30;;;2.60;99.90;1.80;100475;;;;577047;248;24061;-75
2024/01/27 08:15:02;;;;;;;0.50;0.30;;;2.70;99.90;1.80;100486;;;;568366;249;24061;-76
2024/01/27 08:17:30;;;;;;;0.50;0.50;;;2.70;99.90;1.80;100486;;;;568181;249;24088;-77
2024/01/27 08:19:59;;;;;;;0.30;0.30;;;2.70;99.90;1.80;100492;;;;568345;249;24079;-75
2024/01/27 08:22:26;;;;;;;0.33;0.33;;;2.70;99.90;1.80;100488;;;;568241;249;24065;-75
2024/01/27 08:24:54;;;;;;;0.50;0.50;;;2.70;99.90;1.90;100501;;;;569480;248;24051;-78
2024/01/27 08:27:22;;;;;;;0.10;0.10;;;2.80;99.90;1.90;100513;;;;567368;248;24069;-77
2024/01/27 08:29:50;;;;;;;0.40;0.40;;;2.80;99.90;1.90;100527;;;;569473;249;24069;-78
2024/01/27 08:32:18;;;;;;;0.53;0.53;;;2.80;99.90;1.90;100526;;;;566962;249;24062;-77
2024/01/27 08:34:47;;;;;;;2.70;0.30;;;2.80;99.90;1.90;100537;;;;568738;249;24073;-76
2024/01/27 08:37:16;;;;;;;0.40;0.40;;;2.80;99.90;1.90;100540;;;;568920;249;24151;-78
2024/01/27 08:39:44;;;;;;;0.23;0.23;;;2.80;99.90;1.90;100545;;;;568452;249;24181;-78
2024/01/27 08:42:12;;;;;;;0.80;0.50;;;2.80;99.90;1.90;100561;;;;566747;249;24134;-77
2024/01/27 08:44:41;;;;;;;0.80;0.80;;;2.70;99.90;1.90;100563;;;;568588;249;24063;-77
2024/01/27 08:47:12;;;;;;;3.00;0.47;;;2.70;99.90;1.80;100567;;;;568446;249;24048;-77
2024/01/27 08:49:37;;;;;;;3.23;0.80;;;2.70;99.90;1.80;100580;;;;568401;249;24056;-78
2024/01/27 08:52:05;;;;;;;0.73;0.63;;;2.70;99.90;1.70;100589;;;;568542;249;24076;-78
2024/01/27 08:54:33;;;;;;;0.20;0.20;;;2.60;99.90;1.70;100595;;;;568624;249;24044;-78
2024/01/27 08:57:00;;;;;;;0.27;0.27;;;2.60;99.90;1.70;100597;;;;568561;249;24089;-79
2024/01/27 08:59:28;;;;;;;0.63;0.63;;;2.60;99.90;1.60;100601;;;;568404;249;24080;-78
2024/01/27 09:01:56;;;;;;;0.60;0.60;;;2.50;99.90;1.60;100611;;;;566448;249;24069;-77
2024/01/27 09:04:24;;;;;;;0.80;0.80;;;2.50;99.90;1.50;100611;;;;566475;249;24122;-78
2024/01/27 09:06:52;;;;;;;1.80;1.20;;;2.40;99.90;1.50;100613;;;;568649;249;24102;-77
2024/01/27 09:09:20;;;;;;;0.30;0.30;;;2.40;99.90;1.50;100623;;;;568674;249;24060;-77
2024/01/27 09:11:51;;;;;;;0.73;0.73;;;2.40;99.90;1.50;100619;;;;566528;249;24057;-76
2024/01/27 09:14:16;;;;;;;0.80;0.80;;;2.40;99.90;1.50;100630;;;;566383;249;24072;-76
2024/01/27 09:16:45;;;;;;;0.77;0.67;;;2.40;99.90;1.60;100641;;;;568585;249;24056;-75
2024/01/27 09:19:11;;;;;;;0.60;0.60;;;2.50;99.90;1.60;100645;;;;568598;249;25144;-76
2024/01/27 09:21:39;;;;;;;0.60;0.60;;;2.50;99.90;1.60;100647;;;;566521;249;24119;-76
2024/01/27 09:24:08;;;;;;;1.48;1.37;;;2.50;99.90;1.60;100655;;;;563698;249;34916;-75
2024/01/27 09:26:36;;;;;;;3.50;0.73;;;2.50;99.90;1.60;100665;;;;568560;249;24145;-76
2024/01/27 09:29:04;;;;;;;2.05;1.77;;;2.50;99.90;1.70;100670;;;;563270;249;34972;-79
2024/01/27 09:31:32;;;;;;;1.40;1.00;;;2.60;99.90;1.70;100663;;;;568623;249;24126;-79
2024/01/27 09:34:00;;;;;;;0.97;0.97;;;2.60;99.90;1.70;100666;;;;566117;249;24091;-78
2024/01/27 09:36:28;;;;;;;2.87;1.20;;;2.60;99.90;1.70;100685;;;;569458;248;24059;-75
2024/01/27 09:38:55;;;;;;;6.33;1.13;;;2.60;99.90;1.70;100684;;;;569357;248;24143;-78
2024/01/27 09:41:24;;;;;;;2.30;2.10;;;2.70;99.90;1.80;100694;;;;564313;249;35024;-79
2024/01/27 09:43:52;;;;;;;4.20;2.50;;;2.70;99.90;1.80;100695;;;;564089;248;35092;-78
2024/01/27 09:46:20;;;;;;;1.30;1.20;;;2.70;99.90;1.80;100692;;;;568684;249;24084;-79
2024/01/27 09:48:48;;;;;;;4.70;2.87;;;2.70;99.90;1.80;100700;;;;568916;249;24052;-79
2024/01/27 09:51:16;;;;;;;1.00;0.93;;;2.70;99.90;1.90;100698;;;;568769;249;24103;-79
2024/01/27 09:53:44;;;;;;;1.20;0.90;;;2.80;99.90;1.90;100712;;;;568864;249;24057;-78
2024/01/27 09:56:12;;;;;;;0.93;0.50;;;2.80;99.90;1.90;100696;;;;568606;249;24050;-76
2024/01/27 09:58:43;;;;;;;1.60;1.13;;;2.80;99.90;1.90;100710;;;;568462;249;24066;-76
2024/01/27 10:01:07;;;;;;;1.83;1.27;;;2.80;99.90;2.00;100716;;;;568503;249;24055;-78
2024/01/27 10:03:35;;;;;;;4.73;1.50;;;2.90;99.90;2.00;100714;;;;568986;249;24069;-77
2024/01/27 10:06:07;;;;;;;1.40;1.10;;;2.90;99.90;2.00;100741;;;;568812;249;24085;-79
2024/01/27 10:08:32;;;;;;;4.97;3.07;;;2.90;99.90;2.00;100739;;;;573150;249;24123;-77
2024/01/27 10:11:00;;;;;;;6.07;1.73;;;2.90;99.90;2.00;100749;;;;568833;249;24041;-78
2024/01/27 10:13:28;;;;;;;1.50;1.40;;;2.90;99.90;1.90;100743;;;;566612;249;24107;-80
2024/01/27 10:16:12;;;;;;;1.10;1.00;;;2.80;99.90;1.90;100746;;;;568636;249;24138;-79
2024/01/27 10:18:36;;;;;;;1.07;1.07;;;2.80;99.90;1.90;100766;;;;568422;249;24078;-79
2024/01/27 10:21:13;;;;;;;4.00;0.67;;;2.80;99.90;2.00;100760;;;;566494;249;24047;-78
2024/01/27 10:23:42;;;;;;;1.57;0.90;;;3.00;99.90;2.20;100769;;;;567815;249;24060;-79
2024/01/27 10:26:10;;;;;;;0.73;0.70;;;3.00;99.90;2.40;100766;;;;567741;249;24044;-75
2024/01/27 10:28:40;;;;;;;0.93;0.93;;;3.20;99.90;2.50;100781;;;;576810;249;24075;-77
2024/01/27 10:31:12;;;;;;;1.20;1.13;;;3.40;99.90;2.60;100776;;;;567955;249;24083;-77
2024/01/27 10:33:40;;;;;;;2.13;0.80;;;3.40;99.90;2.70;100788;;;;575897;249;24173;-78
2024/01/27 10:36:08;;;;;;;0.40;0.40;;;3.50;99.90;2.90;100785;;;;583347;245;24046;-78
2024/01/27 10:38:38;;;;;;;1.47;0.70;;;3.70;99.90;3.00;100805;;;;568657;249;24097;-76
2024/01/27 10:41:13;;;;;;;1.83;1.03;;;3.70;99.90;2.90;100808;;;;568606;249;24120;-77
2024/01/27 10:43:40;;;;;;;4.93;2.27;;;3.80;99.90;2.80;100815;;;;576869;249;24079;-76
2024/01/27 10:46:06;;;;;;;2.07;1.30;;;3.70;99.90;2.80;100811;;;;568411;249;24074;-75
2024/01/27 10:48:36;;;;;;;1.33;1.00;;;3.70;99.90;2.70;100822;;;;569657;248;24196;-76
2024/01/27 10:51:04;;;;;;;3.20;1.10;;;3.70;99.90;2.70;100817;;;;569485;248;24099;-76
2024/01/27 10:53:35;;;;;;;1.93;1.00;;;3.70;99.90;2.70;100824;;;;569018;249;24158;-77
2024/01/27 10:56:00;;;;;;;0.67;0.67;;;3.60;99.90;2.70;100835;;;;569106;249;24066;-76
2024/01/27 10:58:28;;;;;;;2.13;1.27;;;3.70;99.90;2.70;100837;;;;565181;249;24052;-76
2024/01/27 11:00:56;;;;;;;3.57;1.70;;;3.70;99.90;2.80;100850;;;;568467;249;24074;-76
2024/01/27 11:03:24;;;;;;;4.00;1.33;;;3.70;99.90;2.80;100854;;;;577345;248;24113;-76
2024/01/27 11:05:56;;;;;;;4.43;1.90;;;3.80;99.90;3.00;100861;;;;577434;248;24089;-76
2024/01/27 11:08:24;;;;;;;2.90;1.93;;;3.90;99.90;3.10;100857;;;;568451;249;24076;-76
2024/01/27 11:10:48;;;;;;;4.13;1.73;;;4.00;99.90;3.20;100874;;;;577149;249;24061;-76
2024/01/27 11:13:16;;;;;;;1.83;1.30;;;4.10;99.90;3.20;100869;;;;568711;249;24088;-77
2024/01/27 11:15:53;;;;;;;4.60;1.50;;;4.20;99.90;3.30;100883;;;;568759;249;24107;-77
2024/01/27 11:18:22;;;;;;;4.83;1.43;;;4.30;99.90;3.30;100894;;;;568777;249;24058;-78
2024/01/27 11:20:49;;;;;;;3.03;1.17;;;4.30;99.90;3.30;100889;;;;568720;249;24069;-77
2024/01/27 11:23:17;;;;;;;0.53;0.53;;;4.30;99.90;3.30;100893;;;;566346;249;25096;-77
2024/01/27 11:25:45;;;;;;;1.90;0.90;;;4.30;99.90;3.30;100906;;;;568495;249;24063;-76
2024/01/27 11:28:14;;;;;;;1.83;0.40;;;4.30;99.90;3.30;100889;;;;568105;249;24061;-76
2024/01/27 11:30:41;;;;;;;0.73;0.60;;;4.20;99.90;3.30;100903;;;;568299;249;24081;-77
2024/01/27 11:33:09;;;;;;;0.53;0.53;;;4.20;99.90;3.30;100911;;;;567615;249;24080;-76